Аим

Карта отелей и гостиниц, располагающихся рядом с аэропортом Аим :

Аим Хабаровский край 58° 47' 1.32" N, 134° 15' 43.8012" E
Аим Хабаровский край 58° 47' 1.32" N, 134° 15' 43.8012" E
Код аэродрома ИКАО: 
ZC8D
Код аэродрома RU: 
ЗЦ8Д
Координаты: 
N58.78370° E134.26217°
Превышение над уровнем моря : 
241
Основная полоса: 
03/21
Курс магнитный: 
034,1/214,1
Длина основной ВПП: 
560
Ширина основной ВПП: 
40
Покрытие основной ВПП: 
Нетвёрдое (гравий)
Освещение ВПП: 
Нет
Тип: 
Аэродром
Класс аэродрома: 
Принадлежность: 
ГА
Статус: 
Действующий
Сайт: 
E-mail аэродрома: 
Страна: 
Россия
Регион: 
Хабаровский край
Город: 
Дополнительная информация: 

Найти трансфер

С помощью этой формы Вы можете найти трансфер из аэропорта Аим в город, аэропорт или вокзал:

Карта места

Javascript is required to view this map.

Погода в аэропортах:

Авиационная погода в аэропорту Центральный

Регион: 
Погода METAR: 
UNOO 241400Z 34008G14MPS 9999 -SHRA BKN013 BKN033CB 07/05 Q1008 R25/290050 NOSIG RMK QFE748
Время наблюдения: 
2020-09-24T14:00:00Z
Температура C: 
7.0
Точка росы: 
5.0
Направление ветра: 
340
Скорость ветра (узлы): 
16
Метеорологическая видимость: 
6.21
Явления погоды: 
-SHRA
Условия полета: 
MVFR
Аэропорт подробнее: 

Авиационная погода в Павлодаре

Регион: 
Погода METAR: 
UASP 241400Z 28011MPS 9999 -SHRA OVC011CB 07/06 Q1004 R21/290260 NOSIG RMK QFE742/0989
Время наблюдения: 
2020-09-24T14:00:00Z
Температура C: 
7.0
Точка росы: 
6.0
Направление ветра: 
280
Скорость ветра (узлы): 
21
Метеорологическая видимость: 
6.21
Явления погоды: 
-SHRA
Условия полета: 
MVFR
Аэропорт подробнее: 

Авиационная погода в Констанце

Регион: 
Погода METAR: 
LRCK 241400Z 13009KT 9999 TS FEW048CB 23/19 Q1012 NOSIG
Время наблюдения: 
2020-09-24T14:00:00Z
Температура C: 
23.0
Точка росы: 
19.0
Направление ветра: 
130
Скорость ветра (узлы): 
9
Метеорологическая видимость: 
6.21
Явления погоды: 
TS
Условия полета: 
VFR

Авиационная погода в Куопио

Регион: 
Погода METAR: 
EFKU 241350Z AUTO 12004KT 6000 SHRA //////CB 13/13 Q1007
Время наблюдения: 
2020-09-24T13:50:00Z
Температура C: 
13.0
Точка росы: 
13.0
Направление ветра: 
120
Скорость ветра (узлы): 
4
Метеорологическая видимость: 
3.73
Явления погоды: 
SHRA